createdAt,value
2022-10-02T00:02:26.658Z,94.64
2022-10-02T00:05:14.374Z,93.98
2022-10-02T00:07:43.738Z,94.43
2022-10-02T00:10:18.713Z,94.49
2022-10-02T00:12:47.935Z,94.66
2022-10-02T00:15:19.050Z,95.59
2022-10-02T00:17:49.984Z,95.70
2022-10-02T00:20:19.187Z,95.50
2022-10-02T00:23:11.946Z,95.65
2022-10-02T00:25:50.131Z,95.46
2022-10-02T00:28:35.921Z,95.22
2022-10-02T00:31:23.473Z,95.42
2022-10-02T00:34:00.574Z,95.52
2022-10-02T00:37:04.669Z,95.52
2022-10-02T00:39:44.970Z,95.92
2022-10-02T00:43:02.345Z,95.84
2022-10-02T00:45:34.778Z,95.99
2022-10-02T00:48:16.947Z,96.27
2022-10-02T00:50:52.551Z,96.43
2022-10-02T00:53:32.866Z,96.79
2022-10-02T00:56:14.134Z,96.94
2022-10-02T00:59:04.741Z,97.11
2022-10-02T01:01:49.878Z,97.37
2022-10-02T01:04:37.909Z,97.58
2022-10-02T01:07:11.545Z,97.75
2022-10-02T01:09:39.081Z,97.68
2022-10-02T01:12:05.615Z,97.99
2022-10-02T01:14:33.730Z,98.24
2022-10-02T01:17:00.650Z,98.69
2022-10-02T01:19:37.102Z,98.58
2022-10-02T01:22:16.294Z,98.73
2022-10-02T01:24:53.228Z,98.98
2022-10-02T01:27:19.993Z,99.12
2022-10-02T01:29:51.645Z,99.41
2022-10-02T01:32:18.519Z,99.58
2022-10-02T01:34:45.645Z,99.72
2022-10-02T01:37:12.940Z,99.96
2022-10-02T01:39:40.088Z,100.00
2022-10-02T01:42:06.550Z,100.00
2022-10-02T01:44:33.155Z,100.00
2022-10-02T01:47:02.482Z,100.00
2022-10-02T01:49:57.698Z,100.00
2022-10-02T01:52:36.568Z,100.00
2022-10-02T01:55:33.843Z,100.00
2022-10-02T01:58:24.254Z,100.00
2022-10-02T02:01:14.765Z,100.00
2022-10-02T02:04:09.819Z,100.00
2022-10-02T02:07:05.199Z,100.00
2022-10-02T02:09:52.211Z,100.00
2022-10-02T02:12:47.210Z,100.00
2022-10-02T02:15:24.004Z,100.00
2022-10-02T02:17:58.098Z,100.00
2022-10-02T02:20:38.073Z,100.00
2022-10-02T02:23:10.807Z,100.00
2022-10-02T02:25:45.230Z,100.00
2022-10-02T02:28:15.326Z,100.00
2022-10-02T02:30:45.654Z,99.96
2022-10-02T02:33:18.102Z,100.00
2022-10-02T02:35:49.223Z,100.00
2022-10-02T02:38:24.817Z,100.00
2022-10-02T02:40:51.874Z,100.00
2022-10-02T02:43:28.287Z,100.00
2022-10-02T02:45:56.928Z,100.00
2022-10-02T02:48:50.139Z,100.00
2022-10-02T02:51:26.860Z,100.00
2022-10-02T02:54:08.058Z,100.00
2022-10-02T02:56:35.818Z,100.00
2022-10-02T02:59:10.509Z,100.00
2022-10-02T03:01:37.170Z,100.00
2022-10-02T03:04:04.031Z,100.00
2022-10-02T03:06:38.256Z,100.00
2022-10-02T03:09:18.135Z,100.00
2022-10-02T03:12:11.301Z,100.00
2022-10-02T03:14:57.858Z,100.00
2022-10-02T03:18:01.289Z,100.00
2022-10-02T03:20:36.953Z,100.00
2022-10-02T03:23:15.152Z,100.00
2022-10-02T03:25:44.870Z,100.00
2022-10-02T03:28:43.626Z,100.00
2022-10-02T03:31:11.134Z,100.00
2022-10-02T03:33:38.966Z,100.00
2022-10-02T03:36:05.757Z,100.00
2022-10-02T03:38:33.763Z,100.00
2022-10-02T03:41:00.238Z,100.00
2022-10-02T03:43:29.165Z,100.00
2022-10-02T03:45:55.659Z,100.00
2022-10-02T03:48:22.220Z,100.00
2022-10-02T03:50:50.847Z,100.00
2022-10-02T03:53:22.964Z,100.00
2022-10-02T03:56:06.406Z,100.00
2022-10-02T03:58:34.114Z,100.00
2022-10-02T04:01:07.519Z,100.00
2022-10-02T04:03:38.688Z,100.00
2022-10-02T04:06:35.792Z,100.00
2022-10-02T04:09:18.065Z,100.00
2022-10-02T04:11:49.891Z,100.00
2022-10-02T04:14:33.161Z,100.00
2022-10-02T04:17:09.634Z,100.00
2022-10-02T04:19:51.572Z,100.00
2022-10-02T04:22:50.067Z,100.00
2022-10-02T04:25:20.514Z,100.00
2022-10-02T04:27:53.174Z,100.00
2022-10-02T04:30:20.643Z,100.00
2022-10-02T04:32:47.584Z,100.00
2022-10-02T04:35:33.446Z,100.00
2022-10-02T04:38:18.579Z,100.00
2022-10-02T04:41:00.885Z,100.00
2022-10-02T04:43:34.606Z,100.00
2022-10-02T04:46:24.319Z,100.00
2022-10-02T04:49:18.532Z,100.00
2022-10-02T04:51:53.541Z,100.00
2022-10-02T04:54:41.179Z,100.00
2022-10-02T04:57:24.458Z,100.00
2022-10-02T05:00:08.655Z,99.98
2022-10-02T05:02:50.355Z,99.69
2022-10-02T05:05:22.849Z,100.00
2022-10-02T05:07:58.584Z,100.00
2022-10-02T05:10:49.671Z,100.00
2022-10-02T05:13:54.727Z,100.00
2022-10-02T05:17:03.885Z,100.00
2022-10-02T05:20:03.970Z,100.00
2022-10-02T05:22:48.261Z,100.00
2022-10-02T05:25:36.766Z,100.00
2022-10-02T05:28:05.892Z,100.00
2022-10-02T05:30:48.197Z,100.00
2022-10-02T05:33:32.590Z,100.00
2022-10-02T05:36:25.584Z,100.00
2022-10-02T05:39:02.602Z,100.00
2022-10-02T05:41:47.646Z,100.00
2022-10-02T05:44:22.393Z,100.00
2022-10-02T05:47:07.118Z,100.00
2022-10-02T05:49:41.760Z,100.00
2022-10-02T05:52:14.093Z,100.00
2022-10-02T05:55:00.147Z,100.00
2022-10-02T05:58:03.750Z,100.00
2022-10-02T06:00:51.968Z,100.00
2022-10-02T06:03:57.604Z,100.00
2022-10-02T06:06:34.211Z,100.00
2022-10-02T06:09:08.971Z,100.00
2022-10-02T06:11:50.029Z,100.00
2022-10-02T06:14:27.458Z,100.00
2022-10-02T06:17:05.359Z,100.00
2022-10-02T06:19:54.028Z,100.00
2022-10-02T06:22:26.396Z,100.00
2022-10-02T06:25:04.493Z,100.00
2022-10-02T06:27:54.603Z,100.00
2022-10-02T06:30:22.034Z,100.00
2022-10-02T06:33:19.946Z,100.00
2022-10-02T06:35:58.643Z,100.00
2022-10-02T06:38:31.099Z,100.00
2022-10-02T06:41:23.438Z,100.00
2022-10-02T06:44:08.870Z,100.00
2022-10-02T06:46:47.343Z,100.00
2022-10-02T06:49:22.861Z,100.00
2022-10-02T06:52:16.254Z,100.00
2022-10-02T06:54:51.898Z,100.00
2022-10-02T06:57:40.123Z,100.00
2022-10-02T07:00:16.288Z,100.00
2022-10-02T07:03:18.981Z,100.00
2022-10-02T07:05:53.256Z,100.00
2022-10-02T07:08:44.321Z,100.00
2022-10-02T07:11:36.262Z,100.00
2022-10-02T07:14:39.618Z,100.00
2022-10-02T07:17:33.986Z,100.00
2022-10-02T07:20:22.641Z,100.00
2022-10-02T07:23:13.553Z,100.00
2022-10-02T07:25:44.156Z,100.00
2022-10-02T07:28:33.414Z,100.00
2022-10-02T07:31:06.882Z,100.00
2022-10-02T07:33:44.633Z,100.00
2022-10-02T07:36:17.571Z,99.86
2022-10-02T07:38:46.788Z,99.53
2022-10-02T07:41:34.628Z,99.21
2022-10-02T07:44:10.182Z,99.17
2022-10-02T07:47:04.640Z,99.14
2022-10-02T07:49:45.643Z,98.77
2022-10-02T07:52:17.868Z,98.72
2022-10-02T07:55:13.707Z,98.37
2022-10-02T07:58:17.072Z,98.27
2022-10-02T08:00:47.624Z,98.36
2022-10-02T08:03:16.836Z,98.03
2022-10-02T08:05:58.461Z,98.29
2022-10-02T08:08:49.397Z,98.03
2022-10-02T08:11:17.514Z,97.73
2022-10-02T08:13:56.014Z,97.06
2022-10-02T08:16:32.344Z,96.82
2022-10-02T08:19:03.962Z,95.73
2022-10-02T08:21:38.832Z,96.19
2022-10-02T08:24:17.235Z,96.39
2022-10-02T08:26:49.958Z,95.79
2022-10-02T08:29:19.641Z,94.94
2022-10-02T08:31:47.121Z,94.67
2022-10-02T08:34:18.535Z,93.67
2022-10-02T08:37:15.575Z,93.80
2022-10-02T08:39:44.937Z,93.85
2022-10-02T08:42:48.766Z,94.65
2022-10-02T08:45:45.128Z,92.69
2022-10-02T08:48:23.306Z,93.07
2022-10-02T08:50:59.279Z,91.65
2022-10-02T08:53:37.885Z,92.14
2022-10-02T08:56:29.224Z,91.53
2022-10-02T08:59:42.195Z,90.58
2022-10-02T09:02:53.175Z,90.20
2022-10-02T09:05:31.241Z,90.24
2022-10-02T09:08:28.842Z,89.52
2022-10-02T09:11:20.827Z,89.67
2022-10-02T09:14:43.399Z,89.23
2022-10-02T09:17:19.702Z,88.71
2022-10-02T09:19:58.108Z,88.52
2022-10-02T09:23:21.618Z,88.22
2022-10-02T09:26:06.573Z,87.27
2022-10-02T09:28:47.689Z,86.76
2022-10-02T09:31:34.988Z,86.64
2022-10-02T09:34:10.541Z,86.86
2022-10-02T09:37:08.620Z,86.58
2022-10-02T09:40:04.264Z,85.42
2022-10-02T09:42:42.977Z,86.08
2022-10-02T09:45:32.337Z,85.93
2022-10-02T09:48:52.850Z,86.12
2022-10-02T09:51:41.737Z,85.60
2022-10-02T09:54:26.762Z,84.99
2022-10-02T09:57:31.026Z,84.34
2022-10-02T10:00:04.373Z,84.73
2022-10-02T10:02:39.741Z,84.39
2022-10-02T10:05:27.997Z,83.72
2022-10-02T10:08:24.650Z,83.66
2022-10-02T10:11:10.573Z,83.13
2022-10-02T10:14:05.182Z,83.72
2022-10-02T10:16:53.299Z,83.10
2022-10-02T10:19:41.999Z,81.94
2022-10-02T10:22:31.287Z,82.76
2022-10-02T10:25:30.099Z,82.48
2022-10-02T10:28:15.370Z,82.29
2022-10-02T10:30:50.877Z,80.32
2022-10-02T10:33:26.224Z,80.59
2022-10-02T10:36:30.259Z,79.93
2022-10-02T10:39:38.428Z,80.74
2022-10-02T10:43:08.691Z,77.78
2022-10-02T10:46:03.795Z,77.89
2022-10-02T10:48:34.876Z,77.61
2022-10-02T10:51:31.461Z,78.65
2022-10-02T10:54:44.783Z,77.56
2022-10-02T10:57:32.844Z,76.38
2022-10-02T11:00:20.254Z,75.55
2022-10-02T11:03:06.038Z,75.36
2022-10-02T11:05:51.486Z,72.39
2022-10-02T11:08:29.770Z,73.09
2022-10-02T11:11:27.865Z,72.45
2022-10-02T11:14:16.597Z,69.83
2022-10-02T11:17:11.632Z,71.82
2022-10-02T11:19:44.522Z,69.44
2022-10-02T11:22:17.334Z,68.82
2022-10-02T11:25:12.558Z,70.64
2022-10-02T11:28:22.250Z,72.95
2022-10-02T11:31:23.412Z,71.99
2022-10-02T11:34:13.905Z,70.53
2022-10-02T11:36:54.358Z,68.53
2022-10-02T11:39:44.902Z,67.99
2022-10-02T11:42:59.046Z,68.68
2022-10-02T11:45:32.777Z,70.33
2022-10-02T11:48:20.206Z,71.17
2022-10-02T11:50:46.654Z,70.76
2022-10-02T11:53:45.034Z,72.40
2022-10-02T11:56:39.012Z,72.12
2022-10-02T11:59:29.622Z,72.33
2022-10-02T12:02:16.522Z,71.95
2022-10-02T12:05:34.583Z,71.58
2022-10-02T12:08:30.216Z,70.13
2022-10-02T12:11:25.920Z,70.87
2022-10-02T12:14:14.451Z,69.92
2022-10-02T12:17:05.379Z,69.68
2022-10-02T12:20:44.389Z,70.32
2022-10-02T12:23:41.467Z,70.82
2022-10-02T12:26:36.798Z,71.15
2022-10-02T12:29:25.073Z,72.44
2022-10-02T12:32:08.340Z,73.71
2022-10-02T12:34:59.661Z,71.71
2022-10-02T12:37:38.612Z,71.12
2022-10-02T12:40:18.886Z,71.52
2022-10-02T12:42:49.041Z,70.23
2022-10-02T12:45:23.673Z,72.23
2022-10-02T12:48:09.194Z,69.77
2022-10-02T12:51:16.150Z,70.56
2022-10-02T12:54:01.121Z,68.31
2022-10-02T12:56:46.364Z,68.93
2022-10-02T12:59:21.654Z,68.23
2022-10-02T13:02:18.678Z,69.06
2022-10-02T13:04:50.854Z,67.41
2022-10-02T13:07:44.954Z,68.83
2022-10-02T13:10:35.333Z,67.51
2022-10-02T13:13:13.744Z,67.88
2022-10-02T13:15:59.632Z,66.48
2022-10-02T13:18:52.600Z,65.99
2022-10-02T13:21:28.185Z,66.63
2022-10-02T13:24:01.012Z,67.84
2022-10-02T13:27:09.924Z,69.05
2022-10-02T13:30:27.730Z,69.74
2022-10-02T13:33:06.098Z,67.11
2022-10-02T13:35:38.668Z,66.65
2022-10-02T13:38:41.031Z,67.03
2022-10-02T13:42:00.425Z,64.00
2022-10-02T13:44:35.652Z,60.12
2022-10-02T13:47:40.809Z,58.07
2022-10-02T13:50:17.336Z,54.83
2022-10-02T13:53:02.355Z,54.36
2022-10-02T13:55:32.910Z,55.48
2022-10-02T13:58:21.086Z,55.20
2022-10-02T14:01:32.173Z,56.74
2022-10-02T14:04:01.548Z,56.84
2022-10-02T14:06:41.493Z,57.87
2022-10-02T14:09:25.079Z,58.15
2022-10-02T14:12:03.234Z,57.56
2022-10-02T14:14:53.510Z,56.44
2022-10-02T14:17:25.798Z,57.03
2022-10-02T14:20:00.786Z,57.32
2022-10-02T14:23:00.638Z,59.80
2022-10-02T14:25:45.608Z,60.28
2022-10-02T14:28:30.331Z,61.33
2022-10-02T14:31:32.441Z,61.75
2022-10-02T14:34:35.481Z,61.39
2022-10-02T14:37:20.128Z,62.35
2022-10-02T14:39:48.922Z,61.86
2022-10-02T14:42:24.934Z,61.29
2022-10-02T14:45:21.735Z,60.52
2022-10-02T14:48:03.703Z,60.76
2022-10-02T14:50:36.009Z,61.79
2022-10-02T14:53:18.705Z,59.63
2022-10-02T14:56:13.429Z,59.67
2022-10-02T14:58:46.812Z,59.59
2022-10-02T15:01:24.593Z,59.67
2022-10-02T15:04:13.594Z,61.13
2022-10-02T15:07:02.035Z,62.29
2022-10-02T15:10:07.610Z,60.06
2022-10-02T15:12:36.807Z,57.88
2022-10-02T15:15:12.475Z,58.72
2022-10-02T15:17:55.745Z,60.94
2022-10-02T15:20:48.427Z,59.30
2022-10-02T15:23:38.922Z,57.98
2022-10-02T15:26:24.308Z,58.42
2022-10-02T15:29:02.651Z,60.15
2022-10-02T15:31:41.624Z,59.27
2022-10-02T15:34:17.981Z,58.04
2022-10-02T15:37:09.662Z,58.87
2022-10-02T15:39:39.506Z,58.66
2022-10-02T15:42:08.209Z,58.92
2022-10-02T15:45:03.094Z,59.46
2022-10-02T15:47:58.819Z,59.32
2022-10-02T15:50:40.821Z,58.63
2022-10-02T15:53:31.575Z,59.30
2022-10-02T15:56:22.826Z,58.38
2022-10-02T15:59:27.709Z,59.02
2022-10-02T16:02:31.050Z,59.78
2022-10-02T16:05:17.827Z,59.76
2022-10-02T16:08:16.381Z,59.51
2022-10-02T16:11:01.371Z,59.67
2022-10-02T16:13:47.754Z,60.16
2022-10-02T16:16:40.341Z,60.72
2022-10-02T16:19:44.722Z,61.44
2022-10-02T16:22:39.102Z,63.04
2022-10-02T16:25:17.452Z,62.61
2022-10-02T16:28:05.311Z,63.23
2022-10-02T16:30:41.598Z,60.85
2022-10-02T16:33:29.652Z,60.37
2022-10-02T16:36:17.643Z,59.42
2022-10-02T16:39:12.015Z,58.56
2022-10-02T16:42:11.187Z,57.22
2022-10-02T16:45:18.156Z,56.96
2022-10-02T16:48:00.932Z,59.92
2022-10-02T16:51:05.219Z,62.37
2022-10-02T16:53:42.589Z,63.78
2022-10-02T16:56:15.070Z,64.47
2022-10-02T16:58:48.011Z,64.90
2022-10-02T17:01:24.322Z,65.24
2022-10-02T17:04:29.486Z,65.74
2022-10-02T17:07:15.801Z,66.54
2022-10-02T17:10:18.209Z,67.23
2022-10-02T17:12:53.991Z,68.23
2022-10-02T17:15:37.754Z,69.22
2022-10-02T17:18:32.731Z,68.58
2022-10-02T17:21:11.549Z,69.08
2022-10-02T17:23:47.290Z,68.64
2022-10-02T17:26:36.752Z,69.97
2022-10-02T17:29:34.431Z,69.71
2022-10-02T17:32:02.201Z,70.49
2022-10-02T17:34:44.507Z,70.28
2022-10-02T17:37:13.913Z,71.12
2022-10-02T17:40:13.847Z,70.83
2022-10-02T17:43:11.193Z,71.58
2022-10-02T17:45:49.765Z,71.54
2022-10-02T17:48:34.919Z,72.53
2022-10-02T17:51:53.251Z,72.09
2022-10-02T17:54:55.323Z,71.84
2022-10-02T17:57:48.312Z,72.44
2022-10-02T18:00:21.879Z,72.21
2022-10-02T18:03:18.489Z,72.70
2022-10-02T18:06:03.393Z,73.12
2022-10-02T18:08:58.382Z,72.98
2022-10-02T18:12:07.775Z,73.92
2022-10-02T18:14:40.086Z,74.80
2022-10-02T18:17:43.353Z,74.85
2022-10-02T18:20:18.665Z,74.86
2022-10-02T18:23:06.071Z,74.96
2022-10-02T18:26:03.062Z,75.19
2022-10-02T18:28:55.382Z,75.65
2022-10-02T18:31:55.888Z,75.85
2022-10-02T18:35:08.447Z,76.03
2022-10-02T18:38:11.285Z,76.63
2022-10-02T18:40:53.839Z,77.05
2022-10-02T18:43:32.810Z,76.99
2022-10-02T18:46:14.191Z,76.74
2022-10-02T18:48:57.033Z,76.68
2022-10-02T18:51:47.033Z,77.02
2022-10-02T18:54:29.186Z,77.12
2022-10-02T18:57:07.754Z,77.51
2022-10-02T18:59:58.594Z,77.35
2022-10-02T19:02:27.980Z,77.65
2022-10-02T19:05:12.760Z,77.88
2022-10-02T19:07:48.686Z,78.28
2022-10-02T19:10:21.591Z,78.69
2022-10-02T19:12:53.715Z,79.22
2022-10-02T19:15:27.130Z,79.41
2022-10-02T19:18:05.134Z,79.42
2022-10-02T19:20:49.662Z,79.23
2022-10-02T19:23:25.269Z,79.43
2022-10-02T19:25:54.695Z,79.55
2022-10-02T19:28:25.516Z,79.76
2022-10-02T19:30:58.827Z,79.64
2022-10-02T19:33:41.313Z,79.45
2022-10-02T19:36:16.581Z,79.79
2022-10-02T19:38:49.683Z,79.97
2022-10-02T19:41:18.350Z,80.33
2022-10-02T19:43:54.338Z,80.31
2022-10-02T19:46:30.175Z,80.38
2022-10-02T19:48:59.322Z,80.58
2022-10-02T19:51:25.911Z,80.82
2022-10-02T19:54:17.120Z,80.96
2022-10-02T19:56:45.184Z,81.01
2022-10-02T19:59:20.407Z,81.04
2022-10-02T20:02:00.497Z,81.35
2022-10-02T20:04:31.120Z,81.54
2022-10-02T20:06:59.786Z,81.48
2022-10-02T20:09:41.935Z,81.52
2022-10-02T20:12:17.070Z,82.03
2022-10-02T20:14:53.642Z,82.39
2022-10-02T20:17:20.131Z,81.64
2022-10-02T20:19:53.825Z,81.98
2022-10-02T20:22:24.263Z,82.05
2022-10-02T20:25:06.533Z,82.25
2022-10-02T20:27:43.955Z,82.74
2022-10-02T20:30:16.779Z,82.76
2022-10-02T20:32:57.975Z,83.23
2022-10-02T20:35:35.239Z,83.31
2022-10-02T20:38:09.512Z,82.91
2022-10-02T20:40:37.274Z,82.95
2022-10-02T20:43:09.552Z,83.12
2022-10-02T20:46:08.014Z,82.38
2022-10-02T20:49:11.706Z,82.41
2022-10-02T20:52:13.275Z,82.59
2022-10-02T20:54:58.692Z,83.43
2022-10-02T20:58:03.450Z,82.87
2022-10-02T21:01:10.531Z,83.07
2022-10-02T21:03:54.496Z,83.44
2022-10-02T21:06:42.459Z,84.09
2022-10-02T21:09:24.751Z,83.53
2022-10-02T21:12:28.071Z,83.50
2022-10-02T21:15:36.072Z,84.05
2022-10-02T21:18:32.622Z,83.65
2022-10-02T21:21:20.901Z,84.16
2022-10-02T21:24:05.581Z,84.20
2022-10-02T21:26:47.282Z,83.80
2022-10-02T21:29:38.937Z,84.34
2022-10-02T21:32:15.747Z,84.42
2022-10-02T21:35:07.201Z,84.54
2022-10-02T21:37:47.894Z,84.50
2022-10-02T21:40:42.471Z,84.62
2022-10-02T21:43:11.791Z,84.67
2022-10-02T21:45:53.412Z,84.64
2022-10-02T21:48:31.789Z,84.05
2022-10-02T21:51:16.916Z,84.12
2022-10-02T21:54:05.235Z,84.08
2022-10-02T21:57:09.144Z,84.13
2022-10-02T22:00:03.479Z,85.19
2022-10-02T22:03:14.877Z,84.52
2022-10-02T22:06:18.898Z,84.46
2022-10-02T22:08:51.548Z,84.67
2022-10-02T22:11:24.018Z,84.45
2022-10-02T22:13:54.907Z,84.72
2022-10-02T22:16:34.542Z,83.92
2022-10-02T22:19:21.110Z,83.23
2022-10-02T22:22:08.637Z,83.34
2022-10-02T22:25:13.525Z,83.58
2022-10-02T22:27:49.678Z,83.57
2022-10-02T22:30:28.345Z,85.83
2022-10-02T22:33:12.022Z,85.04
2022-10-02T22:35:53.550Z,84.79
2022-10-02T22:38:32.734Z,83.85
2022-10-02T22:41:08.701Z,83.50
2022-10-02T22:43:50.357Z,83.77
2022-10-02T22:46:16.758Z,83.48
2022-10-02T22:48:57.154Z,83.72
2022-10-02T22:51:54.886Z,84.25
2022-10-02T22:54:31.264Z,84.49
2022-10-02T22:57:08.676Z,84.68
2022-10-02T23:00:00.292Z,84.91
2022-10-02T23:02:37.487Z,84.97
2022-10-02T23:05:25.853Z,84.89
2022-10-02T23:07:58.729Z,85.08
2022-10-02T23:10:51.089Z,84.80
2022-10-02T23:13:33.294Z,84.79
2022-10-02T23:16:06.187Z,84.81
2022-10-02T23:18:42.966Z,85.05
2022-10-02T23:21:34.531Z,84.52
2022-10-02T23:24:20.414Z,83.99
2022-10-02T23:27:13.903Z,84.39
2022-10-02T23:30:05.089Z,85.35
2022-10-02T23:32:44.444Z,84.88
2022-10-02T23:35:33.434Z,85.01
2022-10-02T23:38:12.022Z,85.54
2022-10-02T23:41:31.250Z,85.27
2022-10-02T23:44:19.237Z,84.93
2022-10-02T23:46:51.699Z,84.90
2022-10-02T23:49:22.181Z,84.65
2022-10-02T23:52:16.163Z,84.69
2022-10-02T23:55:14.205Z,84.93
2022-10-02T23:57:59.587Z,85.02
